sensor_id;sensor_type;location;lat;lon;timestamp;pressure;altitude;pressure_sealevel;temperature;humidity
62126;BME280;69591;53.282;6.150;2023-05-25T00:00:36;102821.31;;;18.43;55.87
62126;BME280;69591;53.282;6.150;2023-05-25T00:01:44;102824.84;;;18.44;55.77
62126;BME280;69591;53.282;6.150;2023-05-25T00:02:46;102817.75;;;18.43;55.83
62126;BME280;69591;53.282;6.150;2023-05-25T00:03:47;102822.09;;;18.44;55.89
62126;BME280;69591;53.282;6.150;2023-05-25T00:04:49;102821.31;;;18.43;55.80
62126;BME280;69591;53.282;6.150;2023-05-25T00:05:51;102824.03;;;18.43;55.70
62126;BME280;69591;53.282;6.150;2023-05-25T00:06:52;102829.50;;;18.43;55.86
62126;BME280;69591;53.282;6.150;2023-05-25T00:07:54;102825.19;;;18.42;56.04
62126;BME280;69591;53.282;6.150;2023-05-25T00:08:55;102828.69;;;18.43;55.86
62126;BME280;69591;53.282;6.150;2023-05-25T00:09:57;102829.50;;;18.43;55.73
62126;BME280;69591;53.282;6.150;2023-05-25T00:10:58;102823.22;;;18.43;55.70
62126;BME280;69591;53.282;6.150;2023-05-25T00:12:00;102820.50;;;18.43;55.68
62126;BME280;69591;53.282;6.150;2023-05-25T00:13:03;102832.25;;;18.43;55.91
62126;BME280;69591;53.282;6.150;2023-05-25T00:14:04;102823.22;;;18.43;55.73
62126;BME280;69591;53.282;6.150;2023-05-25T00:15:06;102825.97;;;18.43;55.75
62126;BME280;69591;53.282;6.150;2023-05-25T00:16:08;102831.44;;;18.43;55.83
62126;BME280;69591;53.282;6.150;2023-05-25T00:17:09;102831.44;;;18.43;55.84
62126;BME280;69591;53.282;6.150;2023-05-25T00:18:11;102833.41;;;18.42;55.78
62126;BME280;69591;53.282;6.150;2023-05-25T00:19:13;102836.91;;;18.43;55.73
62126;BME280;69591;53.282;6.150;2023-05-25T00:20:15;102834.16;;;18.43;55.88
62126;BME280;69591;53.282;6.150;2023-05-25T00:21:17;102837.72;;;18.43;55.72
62126;BME280;69591;53.282;6.150;2023-05-25T00:22:18;102836.13;;;18.42;55.89
62126;BME280;69591;53.282;6.150;2023-05-25T00:23:20;102829.84;;;18.42;55.75
62126;BME280;69591;53.282;6.150;2023-05-25T00:24:21;102836.13;;;18.42;55.77
62126;BME280;69591;53.282;6.150;2023-05-25T00:25:23;102836.13;;;18.42;55.91
62126;BME280;69591;53.282;6.150;2023-05-25T00:26:24;102832.59;;;18.42;55.84
62126;BME280;69591;53.282;6.150;2023-05-25T00:27:26;102836.91;;;18.43;55.81
62126;BME280;69591;53.282;6.150;2023-05-25T00:28:29;102830.66;;;18.42;55.83
62126;BME280;69591;53.282;6.150;2023-05-25T00:29:30;102830.66;;;18.42;55.70
62126;BME280;69591;53.282;6.150;2023-05-25T00:30:33;102830.66;;;18.42;55.99
62126;BME280;69591;53.282;6.150;2023-05-25T00:31:34;102834.50;;;18.41;55.81
62126;BME280;69591;53.282;6.150;2023-05-25T00:32:36;102839.63;;;18.43;55.68
62126;BME280;69591;53.282;6.150;2023-05-25T00:33:37;102838.06;;;18.42;55.88
62126;BME280;69591;53.282;6.150;2023-05-25T00:34:39;102835.31;;;18.42;55.82
62126;BME280;69591;53.282;6.150;2023-05-25T00:35:41;102835.31;;;18.42;55.75
62126;BME280;69591;53.282;6.150;2023-05-25T00:36:42;102838.06;;;18.42;55.67
62126;BME280;69591;53.282;6.150;2023-05-25T00:37:44;102840.00;;;18.41;55.90
62126;BME280;69591;53.282;6.150;2023-05-25T00:38:46;102840.00;;;18.41;55.80
62126;BME280;69591;53.282;6.150;2023-05-25T00:39:47;102838.06;;;18.42;55.80
62126;BME280;69591;53.282;6.150;2023-05-25T00:40:52;102846.25;;;18.42;55.69
62126;BME280;69591;53.282;6.150;2023-05-25T00:41:54;102840.78;;;18.42;55.67
62126;BME280;69591;53.282;6.150;2023-05-25T00:42:56;102832.59;;;18.42;55.67
62126;BME280;69591;53.282;6.150;2023-05-25T00:44:00;102836.13;;;18.42;55.66
62126;BME280;69591;53.282;6.150;2023-05-25T00:45:02;102832.59;;;18.42;55.70
62126;BME280;69591;53.282;6.150;2023-05-25T00:46:04;102829.03;;;18.41;55.73
62126;BME280;69591;53.282;6.150;2023-05-25T00:47:06;102835.31;;;18.42;55.76
62126;BME280;69591;53.282;6.150;2023-05-25T00:48:08;102834.50;;;18.41;55.88
62126;BME280;69591;53.282;6.150;2023-05-25T00:49:11;102822.00;;;18.40;55.73
62126;BME280;69591;53.282;6.150;2023-05-25T00:50:13;102831.78;;;18.41;55.61
62126;BME280;69591;53.282;6.150;2023-05-25T00:51:15;102836.13;;;18.42;55.79
62126;BME280;69591;53.282;6.150;2023-05-25T00:52:17;102831.00;;;18.41;55.84
62126;BME280;69591;53.282;6.150;2023-05-25T00:53:19;102830.19;;;18.40;55.61
62126;BME280;69591;53.282;6.150;2023-05-25T00:54:21;102829.03;;;18.41;55.86
62126;BME280;69591;53.282;6.150;2023-05-25T00:55:22;102832.94;;;18.40;55.73
62126;BME280;69591;53.282;6.150;2023-05-25T00:56:27;102843.88;;;18.40;55.82
62126;BME280;69591;53.282;6.150;2023-05-25T00:57:30;102831.78;;;18.41;55.76
62126;BME280;69591;53.282;6.150;2023-05-25T00:58:33;102829.38;;;18.40;55.77
62126;BME280;69591;53.282;6.150;2023-05-25T00:59:37;102825.88;;;18.39;55.68
62126;BME280;69591;53.282;6.150;2023-05-25T01:00:40;102830.19;;;18.40;55.81
62126;BME280;69591;53.282;6.150;2023-05-25T01:01:42;102832.94;;;18.40;55.79
62126;BME280;69591;53.282;6.150;2023-05-25T01:02:45;102831.34;;;18.39;55.76
62126;BME280;69591;53.282;6.150;2023-05-25T01:03:48;102833.75;;;18.41;55.69
62126;BME280;69591;53.282;6.150;2023-05-25T01:04:52;102832.94;;;18.40;55.75
62126;BME280;69591;53.282;6.150;2023-05-25T01:05:54;102828.63;;;18.39;55.67
62126;BME280;69591;53.282;6.150;2023-05-25T01:06:56;102830.19;;;18.40;55.76
62126;BME280;69591;53.282;6.150;2023-05-25T01:07:59;102825.88;;;18.39;55.84
62126;BME280;69591;53.282;6.150;2023-05-25T01:09:03;102828.63;;;18.39;55.87
62126;BME280;69591;53.282;6.150;2023-05-25T01:10:05;102826.66;;;18.40;55.87
62126;BME280;69591;53.282;6.150;2023-05-25T01:11:07;102832.13;;;18.40;55.80
62126;BME280;69591;53.282;6.150;2023-05-25T01:12:11;102827.47;;;18.40;55.88
62126;BME280;69591;53.282;6.150;2023-05-25T01:13:15;102821.19;;;18.40;55.77
62126;BME280;69591;53.282;6.150;2023-05-25T01:14:18;102825.88;;;18.39;55.82
62126;BME280;69591;53.282;6.150;2023-05-25T01:15:21;102821.19;;;18.40;55.87
62126;BME280;69591;53.282;6.150;2023-05-25T01:16:23;102829.38;;;18.40;55.81
62126;BME280;69591;53.282;6.150;2023-05-25T01:17:24;102825.06;;;18.39;55.93
62126;BME280;69591;53.282;6.150;2023-05-25T01:18:26;102826.66;;;18.40;55.97
62126;BME280;69591;53.282;6.150;2023-05-25T01:19:27;102832.47;;;18.38;55.75
62126;BME280;69591;53.282;6.150;2023-05-25T01:20:29;102829.75;;;18.38;55.67
62126;BME280;69591;53.282;6.150;2023-05-25T01:21:34;102833.59;;;18.37;55.65
62126;BME280;69591;53.282;6.150;2023-05-25T01:22:38;102833.28;;;18.39;55.78
62126;BME280;69591;53.282;6.150;2023-05-25T01:23:42;102830.53;;;18.39;55.73
62126;BME280;69591;53.282;6.150;2023-05-25T01:24:47;102823.47;;;18.38;55.92
62126;BME280;69591;53.282;6.150;2023-05-25T01:25:50;102824.28;;;18.38;55.83
62126;BME280;69591;53.282;6.150;2023-05-25T01:26:54;102827.00;;;18.38;55.92
62126;BME280;69591;53.282;6.150;2023-05-25T01:27:59;102824.28;;;18.38;55.87
62126;BME280;69591;53.282;6.150;2023-05-25T01:29:03;102832.47;;;18.38;55.76
62126;BME280;69591;53.282;6.150;2023-05-25T01:30:05;102829.75;;;18.38;55.94
62126;BME280;69591;53.282;6.150;2023-05-25T01:31:09;102828.94;;;18.38;55.64
62126;BME280;69591;53.282;6.150;2023-05-25T01:32:11;102836.34;;;18.37;55.69
62126;BME280;69591;53.282;6.150;2023-05-25T01:33:13;102837.13;;;18.38;55.94
62126;BME280;69591;53.282;6.150;2023-05-25T01:34:16;102836.34;;;18.37;55.77
62126;BME280;69591;53.282;6.150;2023-05-25T01:35:18;102842.59;;;18.38;55.94
62126;BME280;69591;53.282;6.150;2023-05-25T01:36:20;102842.59;;;18.38;55.85
62126;BME280;69591;53.282;6.150;2023-05-25T01:37:23;102837.47;;;18.36;55.83
62126;BME280;69591;53.282;6.150;2023-05-25T01:38:25;102851.63;;;18.38;55.69
62126;BME280;69591;53.282;6.150;2023-05-25T01:39:27;102836.34;;;18.37;55.86
62126;BME280;69591;53.282;6.150;2023-05-25T01:40:28;102841.81;;;18.37;55.95
62126;BME280;69591;53.282;6.150;2023-05-25T01:41:30;102839.06;;;18.37;55.92
62126;BME280;69591;53.282;6.150;2023-05-25T01:42:31;102846.16;;;18.38;55.87
62126;BME280;69591;53.282;6.150;2023-05-25T01:43:33;102855.47;;;18.37;55.66
62126;BME280;69591;53.282;6.150;2023-05-25T01:44:35;102850.00;;;18.37;55.88
62126;BME280;69591;53.282;6.150;2023-05-25T01:45:37;102848.41;;;18.36;55.88
62126;BME280;69591;53.282;6.150;2023-05-25T01:46:39;102848.41;;;18.36;55.62
62126;BME280;69591;53.282;6.150;2023-05-25T01:47:43;102848.41;;;18.36;55.90
62126;BME280;69591;53.282;6.150;2023-05-25T01:48:49;102849.19;;;18.37;55.67
62126;BME280;69591;53.282;6.150;2023-05-25T01:49:54;102847.63;;;18.36;55.81
62126;BME280;69591;53.282;6.150;2023-05-25T01:50:59;102850.00;;;18.37;55.81
62126;BME280;69591;53.282;6.150;2023-05-25T01:52:03;102853.88;;;18.36;55.83
62126;BME280;69591;53.282;6.150;2023-05-25T01:53:09;102853.88;;;18.36;55.78
62126;BME280;69591;53.282;6.150;2023-05-25T01:54:16;102851.94;;;18.37;55.78
62126;BME280;69591;53.282;6.150;2023-05-25T01:55:18;102848.41;;;18.36;55.84
62126;BME280;69591;53.282;6.150;2023-05-25T01:56:21;102850.34;;;18.36;55.85
62126;BME280;69591;53.282;6.150;2023-05-25T01:57:24;102853.88;;;18.36;55.77
62126;BME280;69591;53.282;6.150;2023-05-25T01:58:27;102848.41;;;18.36;55.96
62126;BME280;69591;53.282;6.150;2023-05-25T01:59:29;102856.59;;;18.36;55.83
62126;BME280;69591;53.282;6.150;2023-05-25T02:00:31;102848.41;;;18.36;55.84
62126;BME280;69591;53.282;6.150;2023-05-25T02:01:34;102844.06;;;18.35;55.87
62126;BME280;69591;53.282;6.150;2023-05-25T02:02:36;102851.13;;;18.36;55.95
62126;BME280;69591;53.282;6.150;2023-05-25T02:03:38;102844.88;;;18.36;55.75
62126;BME280;69591;53.282;6.150;2023-05-25T02:04:41;102853.09;;;18.36;55.87
62126;BME280;69591;53.282;6.150;2023-05-25T02:05:42;102844.06;;;18.35;55.87
62126;BME280;69591;53.282;6.150;2023-05-25T02:06:46;102848.41;;;18.36;55.81
62126;BME280;69591;53.282;6.150;2023-05-25T02:07:48;102853.09;;;18.36;55.84
62126;BME280;69591;53.282;6.150;2023-05-25T02:08:51;102845.66;;;18.36;55.72
62126;BME280;69591;53.282;6.150;2023-05-25T02:09:52;102842.91;;;18.36;55.86
62126;BME280;69591;53.282;6.150;2023-05-25T02:10:54;102847.63;;;18.36;55.77
62126;BME280;69591;53.282;6.150;2023-05-25T02:11:55;102846.81;;;18.35;55.82
62126;BME280;69591;53.282;6.150;2023-05-25T02:12:57;102846.81;;;18.35;55.72
62126;BME280;69591;53.282;6.150;2023-05-25T02:13:59;102842.16;;;18.36;55.74
62126;BME280;69591;53.282;6.150;2023-05-25T02:15:02;102846.81;;;18.35;55.91
62126;BME280;69591;53.282;6.150;2023-05-25T02:16:04;102841.34;;;18.35;55.68
62126;BME280;69591;53.282;6.150;2023-05-25T02:17:06;102844.06;;;18.35;55.80
62126;BME280;69591;53.282;6.150;2023-05-25T02:18:08;102845.22;;;18.34;55.82
62126;BME280;69591;53.282;6.150;2023-05-25T02:19:09;102846.00;;;18.35;55.73
62126;BME280;69591;53.282;6.150;2023-05-25T02:20:12;102840.53;;;18.35;55.70
62126;BME280;69591;53.282;6.150;2023-05-25T02:21:15;102845.22;;;18.34;55.79
62126;BME280;69591;53.282;6.150;2023-05-25T02:22:17;102840.53;;;18.35;55.87
62126;BME280;69591;53.282;6.150;2023-05-25T02:23:18;102839.75;;;18.34;55.86
62126;BME280;69591;53.282;6.150;2023-05-25T02:24:22;102845.22;;;18.34;55.82
62126;BME280;69591;53.282;6.150;2023-05-25T02:25:24;102846.00;;;18.35;56.06
62126;BME280;69591;53.282;6.150;2023-05-25T02:26:26;102844.41;;;18.34;55.77
62126;BME280;69591;53.282;6.150;2023-05-25T02:27:27;102834.28;;;18.34;55.73
62126;BME280;69591;53.282;6.150;2023-05-25T02:28:29;102839.75;;;18.34;55.96
62126;BME280;69591;53.282;6.150;2023-05-25T02:29:30;102838.94;;;18.34;55.83
62126;BME280;69591;53.282;6.150;2023-05-25T02:30:32;102845.22;;;18.34;55.87
62126;BME280;69591;53.282;6.150;2023-05-25T02:31:33;102845.22;;;18.34;55.87
62126;BME280;69591;53.282;6.150;2023-05-25T02:32:35;102842.84;;;18.33;55.90
62126;BME280;69591;53.282;6.150;2023-05-25T02:33:36;102844.41;;;18.34;55.74
62126;BME280;69591;53.282;6.150;2023-05-25T02:34:38;102850.69;;;18.34;55.72
62126;BME280;69591;53.282;6.150;2023-05-25T02:35:40;102847.16;;;18.34;55.81
62126;BME280;69591;53.282;6.150;2023-05-25T02:36:44;102855.38;;;18.34;55.51
62126;BME280;69591;53.282;6.150;2023-05-25T02:37:45;102853.78;;;18.33;55.94
62126;BME280;69591;53.282;6.150;2023-05-25T02:38:49;102844.78;;;18.32;55.74
62126;BME280;69591;53.282;6.150;2023-05-25T02:39:53;102852.16;;;18.32;55.67
62126;BME280;69591;53.282;6.150;2023-05-25T02:40:54;102855.72;;;18.32;55.85
62126;BME280;69591;53.282;6.150;2023-05-25T02:41:57;102851.81;;;18.33;55.85
62126;BME280;69591;53.282;6.150;2023-05-25T02:43:00;102852.63;;;18.34;55.79
62126;BME280;69591;53.282;6.150;2023-05-25T02:44:01;102853.78;;;18.33;55.88
62126;BME280;69591;53.282;6.150;2023-05-25T02:45:06;102856.16;;;18.34;55.80
62126;BME280;69591;53.282;6.150;2023-05-25T02:46:08;102854.56;;;18.33;55.71
62126;BME280;69591;53.282;6.150;2023-05-25T02:47:11;102855.72;;;18.32;55.88
62126;BME280;69591;53.282;6.150;2023-05-25T02:48:13;102848.31;;;18.33;55.83
62126;BME280;69591;53.282;6.150;2023-05-25T02:49:15;102850.25;;;18.32;55.75
62126;BME280;69591;53.282;6.150;2023-05-25T02:50:17;102852.97;;;18.32;55.73
62126;BME280;69591;53.282;6.150;2023-05-25T02:51:21;102854.91;;;18.32;55.76
62126;BME280;69591;53.282;6.150;2023-05-25T02:52:23;102857.63;;;18.32;55.75
62126;BME280;69591;53.282;6.150;2023-05-25T02:53:24;102856.84;;;18.31;55.84
62126;BME280;69591;53.282;6.150;2023-05-25T02:54:26;102866.66;;;18.32;55.83
62126;BME280;69591;53.282;6.150;2023-05-25T02:55:30;102857.63;;;18.32;55.79
62126;BME280;69591;53.282;6.150;2023-05-25T02:56:31;102864.72;;;18.33;55.78
62126;BME280;69591;53.282;6.150;2023-05-25T02:57:34;102863.91;;;18.32;55.88
62126;BME280;69591;53.282;6.150;2023-05-25T02:58:36;102861.19;;;18.32;55.89
62126;BME280;69591;53.282;6.150;2023-05-25T02:59:44;102858.44;;;18.32;55.82
62126;BME280;69591;53.282;6.150;2023-05-25T03:00:46;102861.19;;;18.32;55.83
62126;BME280;69591;53.282;6.150;2023-05-25T03:01:48;102869.38;;;18.32;55.96
62126;BME280;69591;53.282;6.150;2023-05-25T03:02:50;102862.31;;;18.31;55.74
62126;BME280;69591;53.282;6.150;2023-05-25T03:03:53;102867.78;;;18.31;55.73
62126;BME280;69591;53.282;6.150;2023-05-25T03:04:57;102867.78;;;18.31;55.89
62126;BME280;69591;53.282;6.150;2023-05-25T03:05:58;102868.56;;;18.32;55.72
62126;BME280;69591;53.282;6.150;2023-05-25T03:07:00;102867.78;;;18.31;55.89
62126;BME280;69591;53.282;6.150;2023-05-25T03:08:01;102865.06;;;18.31;55.76
62126;BME280;69591;53.282;6.150;2023-05-25T03:09:04;102861.53;;;18.31;55.77
62126;BME280;69591;53.282;6.150;2023-05-25T03:10:06;102869.38;;;18.32;55.81
62126;BME280;69591;53.282;6.150;2023-05-25T03:11:09;102865.06;;;18.31;55.66
62126;BME280;69591;53.282;6.150;2023-05-25T03:12:11;102867.00;;;18.31;55.86
62126;BME280;69591;53.282;6.150;2023-05-25T03:13:13;102867.78;;;18.31;55.85
62126;BME280;69591;53.282;6.150;2023-05-25T03:14:17;102878.75;;;18.31;55.88
62126;BME280;69591;53.282;6.150;2023-05-25T03:15:26;102876.00;;;18.31;55.90
62126;BME280;69591;53.282;6.150;2023-05-25T03:16:27;102879.50;;;18.32;55.97
62126;BME280;69591;53.282;6.150;2023-05-25T03:17:29;102875.19;;;18.31;56.00
62126;BME280;69591;53.282;6.150;2023-05-25T03:18:30;102884.22;;;18.31;55.80
62126;BME280;69591;53.282;6.150;2023-05-25T03:19:32;102877.13;;;18.30;55.87
62126;BME280;69591;53.282;6.150;2023-05-25T03:20:33;102877.94;;;18.31;55.78
62126;BME280;69591;53.282;6.150;2023-05-25T03:21:35;102882.59;;;18.30;55.93
62126;BME280;69591;53.282;6.150;2023-05-25T03:22:37;102877.13;;;18.30;55.92
62126;BME280;69591;53.282;6.150;2023-05-25T03:23:39;102886.13;;;18.31;56.12
62126;BME280;69591;53.282;6.150;2023-05-25T03:24:42;102882.59;;;18.30;55.91
62126;BME280;69591;53.282;6.150;2023-05-25T03:25:43;102888.88;;;18.31;55.87
62126;BME280;69591;53.282;6.150;2023-05-25T03:26:46;102877.94;;;18.31;55.91
62126;BME280;69591;53.282;6.150;2023-05-25T03:27:50;102889.69;;;18.31;55.89
62126;BME280;69591;53.282;6.150;2023-05-25T03:28:52;102890.03;;;18.30;55.93
62126;BME280;69591;53.282;6.150;2023-05-25T03:29:53;102885.31;;;18.30;55.93
62126;BME280;69591;53.282;6.150;2023-05-25T03:30:55;102881.00;;;18.29;55.73
62126;BME280;69591;53.282;6.150;2023-05-25T03:31:56;102885.31;;;18.30;55.74
62126;BME280;69591;53.282;6.150;2023-05-25T03:33:00;102883.75;;;18.29;55.76
62126;BME280;69591;53.282;6.150;2023-05-25T03:34:08;102885.31;;;18.30;55.91
62126;BME280;69591;53.282;6.150;2023-05-25T03:35:11;102887.28;;;18.30;55.73
62126;BME280;69591;53.282;6.150;2023-05-25T03:36:13;102884.56;;;18.30;55.91
62126;BME280;69591;53.282;6.150;2023-05-25T03:37:15;102888.06;;;18.30;55.95
62126;BME280;69591;53.282;6.150;2023-05-25T03:38:17;102891.94;;;18.29;55.83
62126;BME280;69591;53.282;6.150;2023-05-25T03:39:19;102897.41;;;18.29;55.85
62126;BME280;69591;53.282;6.150;2023-05-25T03:40:22;102893.53;;;18.30;55.77
62126;BME280;69591;53.282;6.150;2023-05-25T03:41:24;102894.69;;;18.29;55.71
62126;BME280;69591;53.282;6.150;2023-05-25T03:42:27;102891.94;;;18.29;55.83
62126;BME280;69591;53.282;6.150;2023-05-25T03:43:28;102898.22;;;18.30;55.96
62126;BME280;69591;53.282;6.150;2023-05-25T03:44:30;102891.13;;;18.29;55.92
62126;BME280;69591;53.282;6.150;2023-05-25T03:45:32;102894.69;;;18.29;55.92
62126;BME280;69591;53.282;6.150;2023-05-25T03:46:33;102894.69;;;18.29;55.89
62126;BME280;69591;53.282;6.150;2023-05-25T03:47:35;102896.59;;;18.29;55.92
62126;BME280;69591;53.282;6.150;2023-05-25T03:48:37;102895.84;;;18.28;55.92
62126;BME280;69591;53.282;6.150;2023-05-25T03:49:38;102901.31;;;18.28;55.88
62126;BME280;69591;53.282;6.150;2023-05-25T03:50:40;102899.00;;;18.30;55.71
62126;BME280;69591;53.282;6.150;2023-05-25T03:51:41;102897.41;;;18.29;55.92
62126;BME280;69591;53.282;6.150;2023-05-25T03:52:43;102897.41;;;18.29;55.89
62126;BME280;69591;53.282;6.150;2023-05-25T03:53:45;102895.84;;;18.28;55.87
62126;BME280;69591;53.282;6.150;2023-05-25T03:54:46;102901.31;;;18.28;55.83
62126;BME280;69591;53.282;6.150;2023-05-25T03:55:48;102908.34;;;18.29;55.79
62126;BME280;69591;53.282;6.150;2023-05-25T03:56:49;102904.03;;;18.28;55.76
62126;BME280;69591;53.282;6.150;2023-05-25T03:58:09;102904.81;;;18.29;55.79
62126;BME280;69591;53.282;6.150;2023-05-25T03:59:11;102902.88;;;18.29;55.94
62126;BME280;69591;53.282;6.150;2023-05-25T04:00:14;102896.59;;;18.29;55.77
62126;BME280;69591;53.282;6.150;2023-05-25T04:01:16;102909.50;;;18.28;55.82
62126;BME280;69591;53.282;6.150;2023-05-25T04:02:17;102902.06;;;18.29;55.74
62126;BME280;69591;53.282;6.150;2023-05-25T04:03:19;102908.34;;;18.29;55.78
62126;BME280;69591;53.282;6.150;2023-05-25T04:04:21;102902.88;;;18.29;55.92
62126;BME280;69591;53.282;6.150;2023-05-25T04:05:22;102906.78;;;18.28;55.64
62126;BME280;69591;53.282;6.150;2023-05-25T04:06:24;102900.50;;;18.28;55.76
62126;BME280;69591;53.282;6.150;2023-05-25T04:07:25;102906.78;;;18.28;55.92
62126;BME280;69591;53.282;6.150;2023-05-25T04:08:27;102901.31;;;18.28;55.84
62126;BME280;69591;53.282;6.150;2023-05-25T04:09:29;102906.78;;;18.28;55.77
62126;BME280;69591;53.282;6.150;2023-05-25T04:10:30;102912.25;;;18.28;55.84
62126;BME280;69591;53.282;6.150;2023-05-25T04:11:33;102906.78;;;18.28;55.75
62126;BME280;69591;53.282;6.150;2023-05-25T04:12:34;102908.34;;;18.29;55.88
62126;BME280;69591;53.282;6.150;2023-05-25T04:13:37;102909.50;;;18.28;55.93
62126;BME280;69591;53.282;6.150;2023-05-25T04:14:38;102904.03;;;18.28;55.83
62126;BME280;69591;53.282;6.150;2023-05-25T04:15:40;102906.78;;;18.28;55.79
62126;BME280;69591;53.282;6.150;2023-05-25T04:16:46;102914.16;;;18.28;55.89
62126;BME280;69591;53.282;6.150;2023-05-25T04:17:49;102905.97;;;18.28;55.84
62126;BME280;69591;53.282;6.150;2023-05-25T04:18:50;102918.50;;;18.29;55.95
62126;BME280;69591;53.282;6.150;2023-05-25T04:19:53;102913.81;;;18.29;55.96
62126;BME280;69591;53.282;6.150;2023-05-25T04:20:54;102914.97;;;18.28;55.86
62126;BME280;69591;53.282;6.150;2023-05-25T04:21:56;102914.97;;;18.28;55.93
62126;BME280;69591;53.282;6.150;2023-05-25T04:22:58;102914.97;;;18.28;55.87
62126;BME280;69591;53.282;6.150;2023-05-25T04:23:59;102906.78;;;18.28;55.86
62126;BME280;69591;53.282;6.150;2023-05-25T04:25:01;102911.44;;;18.28;56.03
62126;BME280;69591;53.282;6.150;2023-05-25T04:26:03;102911.44;;;18.28;55.97
62126;BME280;69591;53.282;6.150;2023-05-25T04:27:04;102912.25;;;18.28;55.75
62126;BME280;69591;53.282;6.150;2023-05-25T04:28:06;102916.91;;;18.28;55.88
62126;BME280;69591;53.282;6.150;2023-05-25T04:29:27;102910.63;;;18.27;55.86
62126;BME280;69591;53.282;6.150;2023-05-25T04:30:52;102916.91;;;18.28;55.77
62126;BME280;69591;53.282;6.150;2023-05-25T04:32:05;102912.25;;;18.28;55.88
62126;BME280;69591;53.282;6.150;2023-05-25T04:33:28;102914.97;;;18.28;55.83
62126;BME280;69591;53.282;6.150;2023-05-25T04:34:34;102914.97;;;18.28;55.94
62126;BME280;69591;53.282;6.150;2023-05-25T04:35:48;102917.72;;;18.28;56.00
62126;BME280;69591;53.282;6.150;2023-05-25T04:36:51;102917.72;;;18.28;56.06
62126;BME280;69591;53.282;6.150;2023-05-25T04:37:53;102918.50;;;18.29;55.97
62126;BME280;69591;53.282;6.150;2023-05-25T04:38:55;102917.72;;;18.28;55.90
62126;BME280;69591;53.282;6.150;2023-05-25T04:39:57;102917.72;;;18.28;55.96
62126;BME280;69591;53.282;6.150;2023-05-25T04:40:59;102916.91;;;18.28;55.87
62126;BME280;69591;53.282;6.150;2023-05-25T04:42:01;102913.38;;;18.27;55.92
62126;BME280;69591;53.282;6.150;2023-05-25T04:43:02;102912.25;;;18.28;56.04
62126;BME280;69591;53.282;6.150;2023-05-25T04:44:04;102909.50;;;18.28;56.12
62126;BME280;69591;53.282;6.150;2023-05-25T04:45:14;102914.16;;;18.28;56.00
62126;BME280;69591;53.282;6.150;2023-05-25T04:46:16;102906.78;;;18.28;55.97
62126;BME280;69591;53.282;6.150;2023-05-25T04:47:18;102914.97;;;18.28;55.78
62126;BME280;69591;53.282;6.150;2023-05-25T04:48:19;102906.78;;;18.28;55.87
62126;BME280;69591;53.282;6.150;2023-05-25T04:49:21;102909.50;;;18.28;56.06
62126;BME280;69591;53.282;6.150;2023-05-25T04:50:23;102910.28;;;18.29;56.06
62126;BME280;69591;53.282;6.150;2023-05-25T04:51:26;102906.78;;;18.28;56.03
62126;BME280;69591;53.282;6.150;2023-05-25T04:52:27;102914.97;;;18.28;55.96
62126;BME280;69591;53.282;6.150;2023-05-25T04:53:29;102914.16;;;18.28;55.88
62126;BME280;69591;53.282;6.150;2023-05-25T04:54:30;102917.72;;;18.28;56.07
62126;BME280;69591;53.282;6.150;2023-05-25T04:55:34;102917.72;;;18.28;56.00
62126;BME280;69591;53.282;6.150;2023-05-25T04:56:36;102913.00;;;18.29;55.94
62126;BME280;69591;53.282;6.150;2023-05-25T04:57:37;102919.28;;;18.29;56.00
62126;BME280;69591;53.282;6.150;2023-05-25T04:58:39;102918.50;;;18.29;55.92
62126;BME280;69591;53.282;6.150;2023-05-25T04:59:41;102918.50;;;18.29;56.09
62126;BME280;69591;53.282;6.150;2023-05-25T05:00:44;102912.25;;;18.28;55.88
62126;BME280;69591;53.282;6.150;2023-05-25T05:01:45;102921.22;;;18.29;55.97
62126;BME280;69591;53.282;6.150;2023-05-25T05:02:50;102915.75;;;18.29;56.03
62126;BME280;69591;53.282;6.150;2023-05-25T05:03:51;102917.72;;;18.28;55.92
62126;BME280;69591;53.282;6.150;2023-05-25T05:04:53;102932.16;;;18.29;55.95
62126;BME280;69591;53.282;6.150;2023-05-25T05:05:56;102920.09;;;18.30;56.04
62126;BME280;69591;53.282;6.150;2023-05-25T05:07:01;102922.03;;;18.29;56.07
62126;BME280;69591;53.282;6.150;2023-05-25T05:08:04;102927.50;;;18.29;56.03
62126;BME280;69591;53.282;6.150;2023-05-25T05:09:06;102924.75;;;18.29;55.92
62126;BME280;69591;53.282;6.150;2023-05-25T05:10:07;102922.03;;;18.29;56.28
62126;BME280;69591;53.282;6.150;2023-05-25T05:11:12;102920.09;;;18.30;55.95
62126;BME280;69591;53.282;6.150;2023-05-25T05:12:14;102920.09;;;18.30;56.01
62126;BME280;69591;53.282;6.150;2023-05-25T05:13:21;102912.25;;;18.28;56.07
62126;BME280;69591;53.282;6.150;2023-05-25T05:14:23;102920.09;;;18.30;55.93
62126;BME280;69591;53.282;6.150;2023-05-25T05:15:26;102922.84;;;18.30;56.06
62126;BME280;69591;53.282;6.150;2023-05-25T05:16:29;102924.75;;;18.29;56.14
62126;BME280;69591;53.282;6.150;2023-05-25T05:17:30;102922.03;;;18.29;56.04
62126;BME280;69591;53.282;6.150;2023-05-25T05:18:32;102924.75;;;18.29;56.04
62126;BME280;69591;53.282;6.150;2023-05-25T05:19:33;102929.44;;;18.29;56.02
62126;BME280;69591;53.282;6.150;2023-05-25T05:20:37;102925.56;;;18.30;56.14
62126;BME280;69591;53.282;6.150;2023-05-25T05:21:38;102927.50;;;18.29;55.90
62126;BME280;69591;53.282;6.150;2023-05-25T05:22:41;102922.84;;;18.30;55.96
62126;BME280;69591;53.282;6.150;2023-05-25T05:23:42;102924.75;;;18.29;56.05
62126;BME280;69591;53.282;6.150;2023-05-25T05:24:45;102928.31;;;18.30;56.06
62126;BME280;69591;53.282;6.150;2023-05-25T05:25:53;102926.34;;;18.30;56.08
62126;BME280;69591;53.282;6.150;2023-05-25T05:26:56;102931.81;;;18.30;56.16
62126;BME280;69591;53.282;6.150;2023-05-25T05:28:03;102933.78;;;18.30;56.09